Aérodrome :







RETROUVEZ-NOUS SUR...

 
LOGIN :

S'inscrire | Disclaimer

   EN    FR    IT 

 









Légende :    VFR   VFR Marginal   IFR   IFR Intensif   IFR Très Intensif
Visi : 
Plafond : 
>= 8 km
>= 3000ft
5 à 8 km
1000 à 3000 ft
1500m à 5 km
500 à 1000 ft
800 à 1500m
200 à 500 ft
< 800m
< 200 ft
Symboles :   Orages  Brouillard  Fortes neiges  Fortes précipitations  Vent > 20 kt






- Altitude de l'aérodrome : 477 ft
- Code IATA : YHZ


CYHZ - Halifax Stanfield Int.

DERNIER METAR :
  • 290600Z 00000KT 15SM BKN060 02/01 A2982 RMK SC6 SLP104

METARs EXPIRÉS :
  • 290500Z 31005KT 15SM SCT060 02/01 A2982 RMK SC4 SLP104
  • 290442Z 31006KT 15SM R14/2800VP6000FT/U SCT030 SCT120 02/02 A2981 RMK SC3AC1 SLP102
  • 290406Z 31006KT 1/8SM R23/1600V2000FT/N R14/1400V1800FT/N FG VV001 02/02 A2981 RMK FG8 SLP102

TAF TAF CYHZ
Valide du 29 à 06h jusqu'au 30 à 06h UTC


290538Z 2906/3006 33007KT P6SM SCT030
TEMPO 2906/2912 2SM BR BKN004
PROB30 2909/2912 1/8SM FG VV002
FM291200 31010KT 3SM BR BKN004 BKN012
FM291500 30015KT P6SM BKN020
FM291800 28015KT P6SM BKN030
BECMG 2922/2924 27007KT
FM300400 VRB03KT P6SM FEW040
PROB30 3004/3006 1SM BR RMK NXT FCST BY 290900Z
FIR CZQM / Amérique du Nord



MET'MAP, la Météo Aéronautique d'un coup d'oeil ! - Copyright ORBIFLY Décembre 2007 - Disclaimer

ORBIFLY MET'MAP TEAM :

Programmation & Développement : Alexandra Zaïnal
Sur une idée originale de : Baudouin d'Aumeries
Assistance à la programmation : Marc-Olivier Méhu
Soutien technique & logistique : Manuel Goepfert

Contact : metmap@orbifly.com




SOURCES & CREDITS :

   NOAA